Time;durP1;ratioP1;P1;durP2;ratioP2;P2;SDS_P1;SDS_P2;PMS_P1;PMS_P2;Temp;Humidity;BMP_temperature;BMP_pressure;BME280_temperature;BME280_humidity;BME280_pressure;Samples;Min_cycle;Max_cycle;Signal;HPM_P1;HPM_P2
2023/12/12 00:01:52;;;;;;;4.80;1.38;;;7.70;99.90;;;;;;5102832;27;20510;-65
2023/12/12 00:04:18;;;;;;;2.65;1.23;;;7.70;99.90;;;;;;5121275;27;20038;-65
2023/12/12 00:06:43;;;;;;;2.97;1.48;;;7.70;99.90;;;;;;5120451;27;20039;-64
2023/12/12 00:09:09;;;;;;;3.17;1.17;;;7.60;99.90;;;;;;5100144;27;20348;-66
2023/12/12 00:11:35;;;;;;;4.13;1.50;;;7.70;99.90;;;;;;5120010;27;20047;-67
2023/12/12 00:14:00;;;;;;;3.15;1.45;;;7.60;99.90;;;;;;5120436;27;20047;-66
2023/12/12 00:16:26;;;;;;;3.42;1.02;;;7.70;99.90;;;;;;5120527;27;20065;-66
2023/12/12 00:18:52;;;;;;;4.88;1.77;;;7.60;99.90;;;;;;5101446;27;20131;-66
2023/12/12 00:21:18;;;;;;;5.68;1.20;;;7.60;99.90;;;;;;5085100;27;20134;-66
2023/12/12 00:23:44;;;;;;;2.17;1.20;;;7.60;99.90;;;;;;5120224;27;20109;-67
2023/12/12 00:26:12;;;;;;;2.60;1.23;;;7.60;99.90;;;;;;5120458;27;20118;-67
2023/12/12 00:28:38;;;;;;;2.88;1.20;;;7.60;99.90;;;;;;5120223;27;20035;-66
2023/12/12 00:31:04;;;;;;;4.70;1.30;;;7.50;99.90;;;;;;5120775;27;20035;-67
2023/12/12 00:33:29;;;;;;;2.58;1.55;;;7.60;99.90;;;;;;5121441;27;20042;-66
2023/12/12 00:35:55;;;;;;;3.05;1.27;;;7.50;99.90;;;;;;5120274;27;20304;-66
2023/12/12 00:38:28;;;;;;;4.00;2.00;;;7.50;99.90;;;;;;5120068;27;20046;-66
2023/12/12 00:40:54;;;;;;;2.40;1.17;;;7.50;99.90;;;;;;5101260;27;20099;-66
2023/12/12 00:43:20;;;;;;;3.45;1.00;;;7.50;99.90;;;;;;5120657;27;20080;-65
2023/12/12 00:45:46;;;;;;;5.90;1.40;;;7.50;99.90;;;;;;5121065;27;20035;-67
2023/12/12 00:48:12;;;;;;;3.25;1.20;;;7.50;99.90;;;;;;5101399;28;20072;-65
2023/12/12 00:50:38;;;;;;;2.70;1.23;;;7.50;99.90;;;;;;5120186;27;20129;-65
2023/12/12 00:53:04;;;;;;;5.63;1.30;;;7.50;99.90;;;;;;5101382;27;20031;-65
2023/12/12 00:55:30;;;;;;;5.25;1.85;;;7.40;99.90;;;;;;5120138;27;20043;-65
2023/12/12 00:57:58;;;;;;;4.05;1.27;;;7.40;99.90;;;;;;5119948;28;20513;-66
2023/12/12 01:00:23;;;;;;;4.75;1.05;;;7.40;99.90;;;;;;5120630;27;20084;-65
2023/12/12 01:02:49;;;;;;;2.50;1.20;;;7.40;99.90;;;;;;5124778;27;20051;-65
2023/12/12 01:05:16;;;;;;;2.53;1.10;;;7.40;99.90;;;;;;5128171;27;20043;-64
2023/12/12 01:07:41;;;;;;;2.63;1.10;;;7.40;99.90;;;;;;5126701;27;20039;-65
2023/12/12 01:10:08;;;;;;;2.08;1.17;;;7.40;99.90;;;;;;5127051;27;20051;-65
2023/12/12 01:12:34;;;;;;;4.78;1.00;;;7.40;99.90;;;;;;5126247;27;20524;-66
2023/12/12 01:14:59;;;;;;;2.95;1.25;;;7.30;99.90;;;;;;5128905;27;20031;-67
2023/12/12 01:17:26;;;;;;;3.50;1.10;;;7.30;99.90;;;;;;5129834;27;20034;-65
2023/12/12 01:19:52;;;;;;;2.40;1.33;;;7.30;99.90;;;;;;5109534;27;20116;-67
2023/12/12 01:22:24;;;;;;;3.10;1.40;;;7.30;99.90;;;;;;5126486;27;20595;-66
2023/12/12 01:24:50;;;;;;;2.60;1.15;;;7.30;99.90;;;;;;5126705;27;20035;-66
2023/12/12 01:27:15;;;;;;;2.20;0.82;;;7.20;99.90;;;;;;5126286;27;20042;-67
2023/12/12 01:29:41;;;;;;;4.90;1.40;;;7.20;99.90;;;;;;5107719;27;20131;-67
2023/12/12 01:32:07;;;;;;;2.55;1.42;;;7.20;99.90;;;;;;5126730;27;20423;-65
2023/12/12 01:34:33;;;;;;;4.20;1.73;;;7.20;99.90;;;;;;5126710;27;20076;-66
2023/12/12 01:36:59;;;;;;;2.15;1.10;;;7.20;99.90;;;;;;5106848;27;20074;-66
2023/12/12 01:39:25;;;;;;;1.35;1.13;;;7.20;99.90;;;;;;5125457;27;20095;-65
2023/12/12 01:41:50;;;;;;;4.47;1.48;;;7.20;99.90;;;;;;5107726;27;20454;-65
2023/12/12 01:44:16;;;;;;;2.15;1.23;;;7.20;99.90;;;;;;5126595;27;20101;-66
2023/12/12 01:46:47;;;;;;;2.80;1.20;;;7.10;99.90;;;;;;5126814;27;20042;-66
2023/12/12 01:49:16;;;;;;;1.10;0.90;;;7.10;99.90;;;;;;5127053;27;20444;-66
2023/12/12 01:51:44;;;;;;;1.80;0.98;;;7.10;99.90;;;;;;5127168;27;20034;-66
2023/12/12 01:54:09;;;;;;;8.95;2.55;;;7.10;99.90;;;;;;5127254;27;20084;-66
2023/12/12 01:56:36;;;;;;;3.88;1.08;;;7.10;99.90;;;;;;5127037;27;20043;-66
2023/12/12 01:59:02;;;;;;;2.72;1.13;;;7.00;99.90;;;;;;5109795;27;20675;-65
2023/12/12 02:01:28;;;;;;;1.48;0.93;;;7.00;99.90;;;;;;5128551;27;20062;-66
2023/12/12 02:03:57;;;;;;;2.60;1.25;;;7.00;99.90;;;;;;5128895;27;20051;-64
2023/12/12 02:06:23;;;;;;;1.60;1.10;;;7.00;99.90;;;;;;5110007;27;20031;-65
2023/12/12 02:08:49;;;;;;;2.75;1.00;;;7.00;99.90;;;;;;5129212;27;20993;-66
2023/12/12 02:11:16;;;;;;;1.85;1.15;;;7.00;99.90;;;;;;5127629;27;20468;-66
2023/12/12 02:13:42;;;;;;;2.65;1.20;;;6.90;99.90;;;;;;5125021;27;20508;-68
2023/12/12 02:16:09;;;;;;;2.13;0.93;;;6.90;99.90;;;;;;5106699;27;20039;-66
2023/12/12 02:18:35;;;;;;;4.53;0.80;;;;;;;;;;5106422;27;20150;-66
2023/12/12 02:21:01;;;;;;;1.27;0.77;;;;;;;;;;5125490;27;20406;-66
2023/12/12 02:23:28;;;;;;;1.27;0.90;;;;;;;;;;5125269;27;20458;-66
2023/12/12 02:25:54;;;;;;;1.67;0.93;;;;;;;;;;5125809;27;20466;-66
2023/12/12 02:28:21;;;;;;;2.05;1.00;;;;;;;;;;5123981;27;20515;-66
2023/12/12 02:30:47;;;;;;;1.40;0.80;;;;;;;;;;5119188;27;20054;-66
2023/12/12 02:33:13;;;;;;;1.58;1.10;;;;;;;;;;5124652;27;20126;-66
2023/12/12 02:35:39;;;;;;;3.15;1.40;;;;;;;;;;5103319;27;20073;-65
2023/12/12 02:38:05;;;;;;;3.25;1.27;;;6.90;99.90;;;;;;5104915;27;20510;-65
2023/12/12 02:40:31;;;;;;;2.55;1.58;;;;;;;;;;5103617;27;20054;-65
2023/12/12 02:42:57;;;;;;;2.17;1.20;;;;;;;;;;5124340;27;20038;-65
2023/12/12 02:45:23;;;;;;;1.75;1.08;;;;;;;;;;5122141;27;20111;-65
2023/12/12 02:47:51;;;;;;;3.90;1.38;;;;;;;;;;5125386;27;20156;-65
2023/12/12 02:50:17;;;;;;;1.70;1.10;;;6.80;99.90;;;;;;5124804;27;20256;-65
2023/12/12 02:52:45;;;;;;;3.15;1.23;;;6.70;99.90;;;;;;5125664;27;20047;-65
2023/12/12 02:55:11;;;;;;;1.48;1.15;;;6.70;99.90;;;;;;5105263;27;20047;-65
2023/12/12 02:57:40;;;;;;;1.63;1.10;;;;;;;;;;5125154;27;20400;-67
2023/12/12 03:00:06;;;;;;;1.73;1.00;;;;;;;;;;5106615;27;20035;-66
2023/12/12 03:02:36;;;;;;;2.50;1.13;;;;;;;;;;5106607;27;20426;-66
2023/12/12 03:05:01;;;;;;;2.03;1.20;;;6.60;99.90;;;;;;5125562;27;20354;-66
2023/12/12 03:07:27;;;;;;;1.75;1.10;;;6.60;99.90;;;;;;5106337;27;20039;-68
2023/12/12 03:09:53;;;;;;;1.95;1.08;;;6.60;99.90;;;;;;5124805;27;20138;-65
2023/12/12 03:12:19;;;;;;;2.38;1.27;;;6.60;99.90;;;;;;5124079;27;20054;-66
2023/12/12 03:14:45;;;;;;;1.55;1.02;;;;;;;;;;5125369;27;20061;-65
2023/12/12 03:17:11;;;;;;;3.88;1.35;;;;;;;;;;5124556;27;20439;-66
2023/12/12 03:19:37;;;;;;;5.28;1.17;;;;;;;;;;5123277;27;20035;-65
2023/12/12 03:22:03;;;;;;;4.90;1.52;;;;;;;;;;5124572;27;20096;-65
2023/12/12 03:24:29;;;;;;;3.30;1.30;;;;;;;;;;5123357;27;20043;-65
2023/12/12 03:26:56;;;;;;;2.70;1.50;;;;;;;;;;5123409;27;20049;-65
2023/12/12 03:29:21;;;;;;;2.92;1.08;;;6.60;99.90;;;;;;5124810;27;20047;-66
2023/12/12 03:31:47;;;;;;;3.33;1.17;;;;;;;;;;5105950;27;20069;-65
2023/12/12 03:34:13;;;;;;;8.52;1.58;;;;;;;;;;5125316;27;20094;-65
2023/12/12 03:36:43;;;;;;;5.93;1.17;;;;;;;;;;5124319;27;20039;-66
2023/12/12 03:39:10;;;;;;;2.05;1.20;;;;;;;;;;5123984;27;20043;-66
2023/12/12 03:41:36;;;;;;;3.70;1.10;;;;;;;;;;5123650;27;20050;-64
2023/12/12 03:44:02;;;;;;;3.05;1.45;;;6.50;99.90;;;;;;5088325;27;20056;-66
2023/12/12 03:46:34;;;;;;;1.77;0.98;;;6.40;99.90;;;;;;5124347;27;20490;-68
2023/12/12 03:48:59;;;;;;;3.95;1.30;;;6.40;99.90;;;;;;5124743;27;20043;-65
2023/12/12 03:51:25;;;;;;;1.98;0.90;;;6.40;99.90;;;;;;5123957;27;20046;-67
2023/12/12 03:53:51;;;;;;;1.80;1.10;;;6.40;99.90;;;;;;5123777;27;20051;-67
2023/12/12 03:56:17;;;;;;;1.95;1.05;;;6.30;99.90;;;;;;5123474;27;20034;-66
2023/12/12 03:58:43;;;;;;;3.33;1.60;;;6.30;99.90;;;;;;5124129;27;21011;-66
2023/12/12 04:01:08;;;;;;;4.55;1.23;;;6.30;99.90;;;;;;5123474;27;20479;-67
2023/12/12 04:03:34;;;;;;;2.30;1.30;;;;;;;;;;5124348;27;20070;-67
2023/12/12 04:06:04;;;;;;;2.45;1.17;;;;;;;;;;5123816;27;20475;-66
2023/12/12 04:08:30;;;;;;;2.97;1.55;;;;;;;;;;5105032;27;20423;-66
2023/12/12 04:10:56;;;;;;;2.13;1.13;;;;;;;;;;5123019;27;20108;-67
2023/12/12 04:13:22;;;;;;;2.58;1.55;;;;;;;;;;5123379;27;20107;-66
2023/12/12 04:15:48;;;;;;;2.08;1.00;;;;;;;;;;5123720;27;20660;-66
2023/12/12 04:18:14;;;;;;;3.45;1.35;;;;;;;;;;5124574;27;20038;-67
2023/12/12 04:20:40;;;;;;;1.67;1.00;;;;;;;;;;5123953;27;20050;-66
2023/12/12 04:23:07;;;;;;;4.30;1.73;;;;;;;;;;5123598;27;20252;-67
2023/12/12 04:25:33;;;;;;;1.95;1.10;;;;;;;;;;5123298;27;20039;-66
2023/12/12 04:27:59;;;;;;;2.50;1.50;;;;;;;;;;5123486;27;20405;-66
2023/12/12 04:30:25;;;;;;;5.70;1.38;;;;;;;;;;5124360;27;20095;-66
2023/12/12 04:32:52;;;;;;;2.67;1.77;;;;;;;;;;5105231;27;20512;-66
2023/12/12 04:35:19;;;;;;;1.92;1.08;;;;;;;;;;5104234;27;20152;-65
2023/12/12 04:37:46;;;;;;;3.28;1.75;;;;;;;;;;5106625;27;20058;-63
2023/12/12 04:40:12;;;;;;;4.88;1.85;;;;;;;;;;5123936;27;20182;-67
2023/12/12 04:42:38;;;;;;;7.75;1.90;;;;;;;;;;5104314;27;20084;-66
2023/12/12 04:45:05;;;;;;;7.65;2.00;;;;;;;;;;5123466;27;20035;-67
2023/12/12 04:47:31;;;;;;;3.28;1.77;;;;;;;;;;5122917;27;20043;-65
2023/12/12 04:49:57;;;;;;;4.20;1.90;;;;;;;;;;5122770;27;20062;-66
2023/12/12 04:52:23;;;;;;;4.15;1.65;;;;;;;;;;5123651;27;20070;-66
2023/12/12 04:54:49;;;;;;;3.33;2.00;;;;;;;;;;5103890;27;20150;-65
2023/12/12 04:57:15;;;;;;;5.15;1.83;;;;;;;;;;5121857;27;20130;-67
2023/12/12 04:59:42;;;;;;;4.85;2.30;;;;;;;;;;5123923;28;20364;-66
2023/12/12 05:02:08;;;;;;;3.63;1.98;;;;;;;;;;5122996;28;20062;-66
2023/12/12 05:04:35;;;;;;;4.05;2.08;;;;;;;;;;5103756;28;20050;-66
2023/12/12 05:07:01;;;;;;;2.42;1.75;;;;;;;;;;5122984;28;20050;-66
2023/12/12 05:09:27;;;;;;;2.85;2.15;;;;;;;;;;5087211;28;20053;-66
2023/12/12 05:11:54;;;;;;;3.05;1.83;;;;;;;;;;5103146;28;20130;-66
2023/12/12 05:14:20;;;;;;;5.28;2.10;;;;;;;;;;5123505;28;20042;-67
2023/12/12 05:16:46;;;;;;;9.20;2.17;;;;;;;;;;5122920;28;20078;-67
2023/12/12 05:19:12;;;;;;;3.80;1.85;;;;;;;;;;5123198;28;20593;-66
2023/12/12 05:21:38;;;;;;;6.78;2.13;;;;;;;;;;5122539;28;20191;-65
2023/12/12 05:24:05;;;;;;;4.90;2.42;;;;;;;;;;5122600;28;20678;-65
2023/12/12 05:26:32;;;;;;;8.05;2.47;;;;;;;;;;5122138;28;20047;-65
2023/12/12 05:28:59;;;;;;;3.70;2.33;;;;;;;;;;5122121;28;20047;-65
2023/12/12 05:31:25;;;;;;;3.30;1.77;;;;;;;;;;5122608;28;20034;-66
2023/12/12 05:33:51;;;;;;;5.80;2.17;;;;;;;;;;5122957;28;20066;-65
2023/12/12 05:36:17;;;;;;;5.38;2.05;;;;;;;;;;5122750;28;20047;-65
2023/12/12 05:38:43;;;;;;;6.25;2.55;;;;;;;;;;5122408;28;20039;-66
2023/12/12 05:41:09;;;;;;;2.95;2.30;;;;;;;;;;5103086;28;20376;-65
2023/12/12 05:43:35;;;;;;;5.40;2.10;;;;;;;;;;5121860;28;20067;-67
2023/12/12 05:46:02;;;;;;;4.20;2.30;;;;;;;;;;5122715;28;20123;-66
2023/12/12 05:48:29;;;;;;;5.95;2.17;;;;;;;;;;5120559;27;20039;-65
2023/12/12 05:50:56;;;;;;;5.78;2.90;;;;;;;;;;5124110;27;20039;-66
2023/12/12 05:53:22;;;;;;;4.88;2.42;;;;;;;;;;5101821;27;20047;-66
2023/12/12 05:55:48;;;;;;;5.07;2.58;;;;;;;;;;5121150;27;20464;-66
2023/12/12 05:58:14;;;;;;;3.88;2.38;;;;;;;;;;5104938;27;20035;-66
2023/12/12 06:00:40;;;;;;;6.82;2.92;;;;;;;;;;5104054;27;20046;-66
2023/12/12 06:03:08;;;;;;;4.22;2.85;;;;;;;;;;5124055;27;20047;-65
2023/12/12 06:05:34;;;;;;;5.13;2.90;;;;;;;;;;5123921;27;20043;-66
2023/12/12 06:08:01;;;;;;;3.83;2.83;;;;;;;;;;5104964;27;20081;-65
2023/12/12 06:10:27;;;;;;;3.08;2.17;;;;;;;;;;5120920;27;20047;-66
2023/12/12 06:12:53;;;;;;;5.10;2.60;;;;;;;;;;5121567;27;20035;-66
2023/12/12 06:15:20;;;;;;;4.40;3.00;;;;;;;;;;5103276;27;20444;-66
2023/12/12 06:17:46;;;;;;;6.53;3.30;;;;;;;;;;5104470;27;20524;-66
2023/12/12 06:20:13;;;;;;;6.60;2.85;;;;;;;;;;5122532;27;20039;-65
2023/12/12 06:22:39;;;;;;;6.97;3.35;;;;;;;;;;5122550;27;20138;-67
2023/12/12 06:25:06;;;;;;;11.15;3.03;;;;;;;;;;5121087;27;20362;-67
2023/12/12 06:27:33;;;;;;;5.32;2.97;;;;;;;;;;5119580;27;20035;-66
2023/12/12 06:29:59;;;;;;;4.78;3.63;;;;;;;;;;5123901;27;20134;-66
2023/12/12 06:32:25;;;;;;;6.25;3.47;;;;;;;;;;5122155;27;20035;-66
2023/12/12 06:34:51;;;;;;;6.10;3.95;;;;;;;;;;5099985;27;20043;-67
2023/12/12 06:37:17;;;;;;;7.32;3.33;;;;;;;;;;5121643;27;20454;-67
2023/12/12 06:39:43;;;;;;;6.10;3.60;;;;;;;;;;5121677;27;20075;-67
2023/12/12 06:42:11;;;;;;;6.20;3.50;;;;;;;;;;5121808;27;20520;-67
2023/12/12 06:44:39;;;;;;;5.85;3.40;;;;;;;;;;5123749;27;20095;-67
2023/12/12 06:47:05;;;;;;;6.70;4.10;;;;;;;;;;5121027;27;20496;-67
2023/12/12 06:49:32;;;;;;;7.45;2.88;;;;;;;;;;5124630;27;20092;-67
2023/12/12 06:52:01;;;;;;;6.22;3.75;;;;;;;;;;5121400;27;20074;-65
2023/12/12 06:54:27;;;;;;;4.93;3.40;;;;;;;;;;5105855;27;20123;-67
2023/12/12 06:56:53;;;;;;;5.18;3.47;;;;;;;;;;5121987;27;20054;-67
2023/12/12 06:59:19;;;;;;;5.22;3.50;;;;;;;;;;5125282;27;20145;-67
2023/12/12 07:01:45;;;;;;;5.72;3.60;;;;;;;;;;5123163;27;20035;-67
2023/12/12 07:04:11;;;;;;;6.38;3.88;;;;;;;;;;5123749;27;20462;-67
2023/12/12 07:06:37;;;;;;;7.78;3.65;;;;;;;;;;5123275;27;20417;-67
2023/12/12 07:09:04;;;;;;;8.32;4.00;;;;;;;;;;5123082;27;20039;-67
2023/12/12 07:11:31;;;;;;;6.47;3.97;;;;;;;;;;5121147;27;20679;-66
2023/12/12 07:13:57;;;;;;;5.40;3.88;;;;;;;;;;5103976;27;20058;-67
2023/12/12 07:16:23;;;;;;;5.53;3.80;;;;;;;;;;5085089;27;20046;-67
2023/12/12 07:18:49;;;;;;;7.40;3.53;;;;;;;;;;5125287;27;20042;-66
2023/12/12 07:21:16;;;;;;;6.32;3.80;;;;;;;;;;5122844;27;20047;-66
2023/12/12 07:23:42;;;;;;;6.05;3.17;;;;;;;;;;5124668;27;20039;-66
2023/12/12 07:26:08;;;;;;;7.38;3.95;;;;;;;;;;5102871;27;20035;-66
2023/12/12 07:28:34;;;;;;;9.23;4.68;;;;;;;;;;5124817;27;20542;-66
2023/12/12 07:31:02;;;;;;;7.03;3.83;;;;;;;;;;5124188;27;20178;-65
2023/12/12 07:33:28;;;;;;;6.75;3.55;;;;;;;;;;5105043;27;20049;-65
2023/12/12 07:35:54;;;;;;;6.57;4.20;;;;;;;;;;5103920;27;20050;-65
2023/12/12 07:38:20;;;;;;;7.47;4.05;;;;;;;;;;5103945;27;20077;-66
2023/12/12 07:40:46;;;;;;;5.50;3.20;;;;;;;;;;5099661;27;20325;-66
2023/12/12 07:43:13;;;;;;;6.55;4.50;;;;;;;;;;5124545;27;20039;-66
2023/12/12 07:45:42;;;;;;;6.72;4.32;;;;;;;;;;5104806;27;20121;-67
2023/12/12 07:48:11;;;;;;;7.38;4.63;;;;;;;;;;5072865;27;20038;-67
2023/12/12 07:50:37;;;;;;;9.25;4.30;;;;;;;;;;5124161;27;20179;-67
2023/12/12 07:53:04;;;;;;;6.93;4.20;;;;;;;;;;5097414;27;20403;-66
2023/12/12 07:55:31;;;;;;;9.77;4.32;;;;;;;;;;5092044;27;20103;-67
2023/12/12 07:57:57;;;;;;;9.30;4.53;;;;;;;;;;5119729;27;20318;-65
2023/12/12 08:00:25;;;;;;;6.18;3.85;;;;;;;;;;5120989;27;20047;-65
2023/12/12 08:02:52;;;;;;;8.15;4.45;;;;;;;;;;5119412;27;20082;-66
2023/12/12 08:05:18;;;;;;;7.05;4.93;;;;;;;;;;5120035;27;20069;-65
2023/12/12 08:07:44;;;;;;;10.93;5.53;;;;;;;;;;5098558;27;20051;-65
2023/12/12 08:10:10;;;;;;;8.10;4.65;;;;;;;;;;5118823;27;20406;-66
2023/12/12 08:12:37;;;;;;;7.55;4.13;;;;;;;;;;5119149;27;20039;-66
2023/12/12 08:15:04;;;;;;;6.68;4.03;;;;;;;;;;5119698;27;20078;-66
2023/12/12 08:17:30;;;;;;;10.88;4.80;;;;;;;;;;5119241;27;20039;-67
2023/12/12 08:19:56;;;;;;;7.45;5.22;;;;;;;;;;5119973;27;20047;-67
2023/12/12 08:22:22;;;;;;;9.68;4.90;;;;;;;;;;5117494;27;20046;-66
2023/12/12 08:24:50;;;;;;;8.02;4.75;;;;;;;;;;5097026;27;20046;-66
2023/12/12 08:27:20;;;;;;;9.32;4.30;;;;;;;;;;5117653;27;20043;-66
2023/12/12 08:29:48;;;;;;;9.40;5.38;;;;;;;;;;5063159;27;20552;-66
2023/12/12 08:32:14;;;;;;;8.05;4.68;;;;;;;;;;5083366;27;20042;-66
2023/12/12 08:34:40;;;;;;;8.45;5.07;;;;;;;;;;5100130;27;20053;-65
2023/12/12 08:37:06;;;;;;;8.65;5.53;;;;;;;;;;5099208;27;20502;-66
2023/12/12 08:39:33;;;;;;;7.30;4.80;;;;;;;;;;5119868;27;20077;-66
2023/12/12 08:41:59;;;;;;;8.43;4.72;;;;;;;;;;5117996;27;20039;-65
2023/12/12 08:44:25;;;;;;;10.50;4.80;;;;;;;;;;5119556;27;20408;-65
2023/12/12 08:46:52;;;;;;;8.85;5.07;;;;;;;;;;5119027;27;20071;-65
2023/12/12 08:49:18;;;;;;;9.00;5.82;;;;;;;;;;5120912;27;20039;-66
2023/12/12 08:51:45;;;;;;;8.05;5.32;;;;;;;;;;5100194;28;20051;-66
2023/12/12 08:54:11;;;;;;;10.93;5.10;;;;;;;;;;5118759;27;20514;-66
2023/12/12 08:56:38;;;;;;;8.57;5.35;;;;;;;;;;5118241;27;20073;-65
2023/12/12 08:59:05;;;;;;;10.23;5.97;;;;;;;;;;5120036;27;20043;-66
2023/12/12 09:01:31;;;;;;;10.18;6.63;;;;;;;;;;5119889;28;20053;-66
2023/12/12 09:03:58;;;;;;;10.88;5.07;;;;;;;;;;5119736;28;20043;-66
2023/12/12 09:06:24;;;;;;;9.50;5.68;;;;;;;;;;5120492;28;20419;-67
2023/12/12 09:08:50;;;;;;;10.30;5.20;;;;;;;;;;5120296;28;20278;-65
2023/12/12 09:11:17;;;;;;;9.93;5.28;;;;;;;;;;5100614;28;20090;-66
2023/12/12 09:13:43;;;;;;;8.45;5.63;;;;;;;;;;5120883;28;20039;-66
2023/12/12 09:16:09;;;;;;;9.23;5.65;;;;;;;;;;5119524;28;20049;-66
2023/12/12 09:18:35;;;;;;;6.82;4.97;;;;;;;;;;5119924;28;20035;-66
2023/12/12 09:21:01;;;;;;;10.05;6.03;;;;;;;;;;5117499;27;20048;-66
2023/12/12 09:23:28;;;;;;;10.40;6.35;;;;;;;;;;5123661;27;20046;-66
2023/12/12 09:25:55;;;;;;;8.93;6.18;;;;;;;;;;5104651;27;20520;-66
2023/12/12 09:28:22;;;;;;;8.73;6.18;;;;;;;;;;5123448;27;20151;-65
2023/12/12 09:30:49;;;;;;;9.73;5.82;;;;;;;;;;5124383;27;20510;-65
2023/12/12 09:33:21;;;;;;;9.07;6.27;;;;;;;;;;5104279;27;20138;-65
2023/12/12 09:35:48;;;;;;;10.68;7.53;;;;;;;;;;5072075;27;20337;-66
2023/12/12 09:38:14;;;;;;;10.60;6.07;;;;;;;;;;5123277;27;20058;-66
2023/12/12 09:40:41;;;;;;;10.13;5.90;;;;;;;;;;5123639;27;20091;-66
2023/12/12 09:43:08;;;;;;;9.60;6.50;;;;;;;;;;5124292;27;20043;-66
2023/12/12 09:45:35;;;;;;;8.60;6.30;;;;;;;;;;5124002;27;20038;-66
2023/12/12 09:48:02;;;;;;;12.18;7.88;;;;;;;;;;5103412;27;20081;-65
2023/12/12 09:50:29;;;;;;;10.18;6.88;;;;;;;;;;5104283;27;20525;-68
2023/12/12 09:52:55;;;;;;;10.10;6.22;;;;;;;;;;5104522;27;20417;-66
2023/12/12 09:55:25;;;;;;;10.68;7.07;;;;;;;;;;5103682;27;20090;-66
2023/12/12 09:57:52;;;;;;;10.63;7.05;;;;;;;;;;5124381;27;20092;-66
2023/12/12 10:00:20;;;;;;;10.15;6.60;;;;;;;;;;5122831;27;20043;-66
2023/12/12 10:02:46;;;;;;;13.38;7.47;;;;;;;;;;5104850;27;20577;-66
2023/12/12 10:05:13;;;;;;;8.10;6.05;;;;;;;;;;5123536;27;20094;-66
2023/12/12 10:07:41;;;;;;;9.25;6.18;;;;;;;;;;5124633;27;20509;-66
2023/12/12 10:10:12;;;;;;;9.07;6.18;;;6.30;99.90;;;;;;5122673;27;20090;-66
2023/12/12 10:12:38;;;;;;;9.00;6.88;;;;;;;;;;5123819;27;20047;-66
2023/12/12 10:15:21;;;;;;;9.98;6.70;;;;;;;;;;5103202;27;20046;-66
2023/12/12 10:17:47;;;;;;;9.15;6.97;;;;;;;;;;5123410;27;21000;-65
2023/12/12 10:20:14;;;;;;;9.90;6.07;;;;;;;;;;5123087;27;20047;-65
2023/12/12 10:22:40;;;;;;;9.57;6.95;;;;;;;;;;5123126;27;20046;-66
2023/12/12 10:25:14;;;;;;;11.63;6.85;;;;;;;;;;5122133;27;20046;-66
2023/12/12 10:27:43;;;;;;;9.10;7.00;;;;;;;;;;5122423;27;20147;-65
2023/12/12 10:30:13;;;;;;;10.65;7.07;;;;;;;;;;5123418;27;20119;-66
2023/12/12 10:32:40;;;;;;;15.00;7.13;;;;;;;;;;5122350;27;20704;-66
2023/12/12 10:35:06;;;;;;;12.05;8.07;;;;;;;;;;5103494;27;20104;-65
2023/12/12 10:37:34;;;;;;;9.55;7.20;;;;;;;;;;5122975;27;20127;-65
2023/12/12 10:40:14;;;;;;;11.27;7.95;;;;;;;;;;5104315;27;20104;-66
2023/12/12 10:42:40;;;;;;;10.13;7.72;;;;;;;;;;5122621;27;20375;-66
2023/12/12 10:45:13;;;;;;;11.30;7.60;;;;;;;;;;5123369;27;20347;-66
2023/12/12 10:47:39;;;;;;;;;;;;;;;;;;5103420;27;20095;-66
2023/12/12 10:50:06;;;;;;;10.32;7.55;;;;;;;;;;5122822;27;19924;-66
2023/12/12 10:52:33;;;;;;;10.13;8.23;;;;;;;;;;5122386;27;20508;-66
2023/12/12 10:54:59;;;;;;;9.75;7.05;;;;;;;;;;5121756;27;20049;-66
2023/12/12 10:57:26;;;;;;;10.30;7.05;;;;;;;;;;5097911;27;20046;-66
2023/12/12 10:59:54;;;;;;;12.25;8.23;;;;;;;;;;5122446;27;20090;-66
2023/12/12 11:02:20;;;;;;;11.00;7.55;;;;;;;;;;5121495;27;20031;-66
2023/12/12 11:04:47;;;;;;;11.27;7.32;;;;;;;;;;5121033;27;20069;-67
2023/12/12 11:07:13;;;;;;;9.23;7.40;;;;;;;;;;5121166;27;20043;-66
2023/12/12 11:09:39;;;;;;;11.95;8.60;;;;;;;;;;5120874;27;20058;-66
2023/12/12 11:12:06;;;;;;;9.65;7.68;;;;;;;;;;5084740;27;20067;-66
2023/12/12 11:14:32;;;;;;;11.82;7.88;;;;;;;;;;5101282;27;20043;-65
2023/12/12 11:16:59;;;;;;;11.35;7.47;;;;;;;;;;5120807;27;20233;-66
2023/12/12 11:19:26;;;;;;;11.80;7.43;;;;;;;;;;5118276;27;20039;-66
2023/12/12 11:21:55;;;;;;;10.20;7.47;;;;;;;;;;5119119;27;20118;-66
2023/12/12 11:24:21;;;;;;;11.23;8.18;;;;;;;;;;5119635;27;20118;-66
2023/12/12 11:26:48;;;;;;;10.40;7.65;;;;;;;;;;5118872;27;20120;-66
2023/12/12 11:29:18;;;;;;;10.60;7.50;;;;;;;;;;5100630;27;20088;-67
2023/12/12 11:32:01;;;;;;;11.80;7.82;;;;;;;;;;5121562;27;20105;-66
2023/12/12 11:34:35;;;;;;;12.57;8.43;;;;;;;;;;5121627;27;20054;-66
2023/12/12 11:37:01;;;;;;;14.55;8.68;;;;;;;;;;5119715;27;20054;-66
2023/12/12 11:39:30;;;;;;;11.25;8.30;;;;;;;;;;5120881;27;20691;-66
2023/12/12 11:41:57;;;;;;;9.68;6.90;;;;;;;;;;5115310;27;20369;-65
2023/12/12 11:44:23;;;;;;;12.32;8.98;;;;;;;;;;5117591;27;20046;-65
2023/12/12 11:46:54;;;;;;;10.13;7.82;;;;;;;;;;5119612;27;20144;-66
2023/12/12 11:49:26;;;;;;;18.40;8.68;;;;;;;;;;5119898;27;20134;-66
2023/12/12 11:51:53;;;;;;;12.52;7.30;;;;;;;;;;5119543;27;20057;-65
2023/12/12 11:54:21;;;;;;;11.93;8.27;;;;;;;;;;5118718;27;20047;-66
2023/12/12 11:56:48;;;;;;;12.85;7.10;;;;;;;;;;5117604;27;20082;-66
2023/12/12 11:59:21;;;;;;;11.88;7.35;;;;;;;;;;5120689;27;20039;-66
2023/12/12 12:01:48;;;;;;;12.00;8.00;;;;;;;;;;5120386;27;20066;-66
2023/12/12 12:04:14;;;;;;;12.18;8.15;;;;;;;;;;5120294;27;20087;-66
2023/12/12 12:06:41;;;;;;;11.80;8.35;;;;;;;;;;5119407;27;20406;-67
2023/12/12 12:09:07;;;;;;;12.02;8.20;;;;;;;;;;5120744;27;20059;-65
2023/12/12 12:11:37;;;;;;;11.30;8.07;;;;;;;;;;5119441;27;20050;-65
2023/12/12 12:14:03;;;;;;;10.30;8.10;;;;;;;;;;5120350;27;20043;-66
2023/12/12 12:16:29;;;;;;;11.70;8.15;;;;;;;;;;5119923;27;20035;-65
2023/12/12 12:18:55;;;;;;;13.02;8.55;;;;;;;;;;5120782;27;20061;-65
2023/12/12 12:21:25;;;;;;;12.65;8.13;;;;;;;;;;5119829;27;20528;-66
2023/12/12 12:23:51;;;;;;;12.57;9.18;;;;;;;;;;5120324;27;20039;-65
2023/12/12 12:26:17;;;;;;;13.93;9.30;;;;;;;;;;5118661;27;20050;-67
2023/12/12 12:28:43;;;;;;;11.15;8.30;;;;;;;;;;5120158;27;20043;-67
2023/12/12 12:31:10;;;;;;;10.95;6.90;;;;;;;;;;5100661;27;20603;-66
2023/12/12 12:33:37;;;;;;;16.70;8.48;;;;;;;;;;5120666;27;20043;-67
2023/12/12 12:36:04;;;;;;;10.63;7.70;;;;;;;;;;5100142;27;20122;-66
2023/12/12 12:38:34;;;;;;;15.00;9.30;;;;;;;;;;5120274;27;20039;-66
2023/12/12 12:41:00;;;;;;;14.57;10.40;;;;;;;;;;5119357;27;20064;-66
2023/12/12 12:43:26;;;;;;;11.27;8.50;;;;;;;;;;5119471;27;20063;-66
2023/12/12 12:45:53;;;;;;;11.77;8.30;;;;;;;;;;5118563;27;20049;-67
2023/12/12 12:48:21;;;;;;;11.35;8.10;;;;;;;;;;5119602;27;20035;-66
2023/12/12 12:50:48;;;;;;;11.63;7.97;;;;;;;;;;5100259;28;20053;-66
2023/12/12 12:53:14;;;;;;;12.93;8.73;;;;;;;;;;5118699;27;20532;-66
2023/12/12 12:55:42;;;;;;;15.38;8.88;;;;;;;;;;5118331;27;20043;-66
2023/12/12 12:58:10;;;;;;;14.82;8.70;;;;;;;;;;5118029;27;20050;-66
2023/12/12 13:00:37;;;;;;;13.50;8.10;;;;;;;;;;5098499;28;20051;-66
2023/12/12 13:03:06;;;;;;;11.10;8.32;;;;;;;;;;5119639;28;20035;-65
2023/12/12 13:05:32;;;;;;;11.25;8.50;;;;;;;;;;5119864;27;20159;-66
2023/12/12 13:07:59;;;;;;;12.90;8.63;;;;;;;;;;5119543;27;20038;-66
2023/12/12 13:10:25;;;;;;;12.73;8.80;;;;;;;;;;5117071;28;20047;-66
2023/12/12 13:12:51;;;;;;;12.13;8.40;;;;;;;;;;5119418;27;20460;-66
2023/12/12 13:15:20;;;;;;;11.30;8.10;;;;;;;;;;5098525;28;20051;-66
2023/12/12 13:17:47;;;;;;;11.93;8.13;;;;;;;;;;5100314;28;20042;-66
2023/12/12 13:20:13;;;;;;;15.20;8.98;;;;;;;;;;5097331;28;20043;-66
2023/12/12 13:22:40;;;;;;;11.63;8.73;;;;;;;;;;5119542;28;20380;-66
2023/12/12 13:25:15;;;;;;;11.82;8.75;;;;;;;;;;5117751;28;20043;-66
2023/12/12 13:27:42;;;;;;;11.32;7.68;;;;;;;;;;5118152;28;20061;-66
2023/12/12 13:30:11;;;;;;;10.15;7.72;;;;;;;;;;5118142;27;20063;-67
2023/12/12 13:32:38;;;;;;;13.27;8.27;;;;;;;;;;5117812;28;20570;-66
2023/12/12 13:35:07;;;;;;;11.57;8.05;;;;;;;;;;5118686;28;20070;-66
2023/12/12 13:37:35;;;;;;;12.48;8.57;;;;;;;;;;5117156;27;20039;-66
2023/12/12 13:40:01;;;;;;;13.90;8.38;;;;;;;;;;5118117;28;20066;-67
2023/12/12 13:42:29;;;;;;;13.90;8.27;;;;;;;;;;5118010;28;20505;-66
2023/12/12 13:44:55;;;;;;;11.82;8.32;;;;;;;;;;5118609;28;20071;-67
2023/12/12 13:47:21;;;;;;;14.32;8.25;;;;;;;;;;5117072;28;20043;-66
2023/12/12 13:49:48;;;;;;;11.65;8.95;;;;;;;;;;5099387;28;20043;-66
2023/12/12 13:52:14;;;;;;;12.07;9.00;;;;;;;;;;5080518;28;20154;-66
2023/12/12 13:54:40;;;;;;;10.98;8.02;;;;;;;;;;5117452;27;20043;-66
2023/12/12 13:57:07;;;;;;;13.57;9.15;;;;;;;;;;5097820;28;21125;-66
2023/12/12 13:59:34;;;;;;;10.55;7.90;;;;;;;;;;5118908;28;20050;-66
2023/12/12 14:02:00;;;;;;;12.40;8.13;;;;;;;;;;5116436;27;20051;-66
2023/12/12 14:04:26;;;;;;;13.05;9.07;;;;;;;;;;5065476;28;20134;-66
2023/12/12 14:06:53;;;;;;;11.15;8.55;;;;;;;;;;5080243;28;20695;-66
2023/12/12 14:09:19;;;;;;;12.85;8.90;;;;;;;;;;5102116;27;20630;-66
2023/12/12 14:11:45;;;;;;;14.35;8.95;;;;;;;;;;5103824;27;20039;-66